OJAM/ADJ METAR and TAF weather

Enter ICAO airport designator
Station Type Date Time Source
OJAM METAR 2020/02/28 09:00 UTC NOAA

OJAM 280900Z 24006KT CAVOK 19/01 Q1017 NOSIG


Station Type Date Time Source
OJAM Decoded METAR 2020/02/28 09:00 UTC NOAA

Amman Airport, Jordan (OJAM) 31-59N 035-59E 768M
Feb 28, 2020 - 04:00 AM EST / 2020.02.28 0900 UTC
Wind: from the WSW (240 degrees) at 7 MPH (6 KT):0
Visibility: greater than 7 mile(s):0
Temperature: 66 F (19 C)
Dew Point: 33 F (1 C)
Relative Humidity: 29%
Pressure (altimeter): 30.03 in. Hg (1017 hPa)
ob: OJAM 280900Z 24006KT CAVOK 19/01 Q1017 NOSIG
cycle: 9

Station Type Date Time Source
OJAM TAF 2020/02/28 06:39 UTC NOAA

TAF OJAM 280532Z 2806/2912 28005KT 6000 NSC
BECMG 2900/2902 SCT020 PROB30 2906/2912 26010KT 4000 -RA BKN020

Example: see airport list